Aviation Digital Data Service (ADDS)

Output produced by METARs form (1052 UTC 18 June 2019)
found at http://www.aviationweather.gov/metar/data/
 
METAR text: NWWW 181030Z AUTO 00000KT 9999 SCT017 SCT028 19/16 Q1016 NOSIG
Conditions at: NWWW (LA TONTOUTA NLLE, WS) observed 1030 UTC 18 June 2019
Temperature: 19.0°C (66°F)
Dewpoint: 16.0°C (61°F) [RH = 83%]
Pressure (altimeter): 30.00 inches Hg (1016.0 mb)
Winds: calm
Visibility: 6 or more miles (10+ km)
Ceiling: at least 12,000 feet AGL
Clouds: scattered clouds at 1700 feet AGL
scattered clouds at 2800 feet AGL
Weather: no significant weather observed at this time

METAR text: NWWW 181000Z AUTO 00000KT CAVOK 19/16 Q1015 NOSIG
Conditions at: NWWW (LA TONTOUTA NLLE, WS) observed 1000 UTC 18 June 2019
Temperature: 19.0°C (66°F)
Dewpoint: 16.0°C (61°F) [RH = 83%]
Pressure (altimeter): 29.97 inches Hg (1015.0 mb)
Winds: calm
Visibility: 6 or more miles (10+ km)
Ceiling: ceiling and visibility are OK
Clouds: unknown
Weather: no significant weather observed at this time

METAR text: NWWW 180930Z AUTO 00000KT CAVOK 19/16 Q1015 NOSIG
Conditions at: NWWW (LA TONTOUTA NLLE, WS) observed 0930 UTC 18 June 2019
Temperature: 19.0°C (66°F)
Dewpoint: 16.0°C (61°F) [RH = 83%]
Pressure (altimeter): 29.97 inches Hg (1015.0 mb)
Winds: calm
Visibility: 6 or more miles (10+ km)
Ceiling: ceiling and visibility are OK
Clouds: unknown
Weather: no significant weather observed at this time

METAR text: NWWW 180900Z AUTO 03002KT CAVOK 21/17 Q1015 NOSIG
Conditions at: NWWW (LA TONTOUTA NLLE, WS) observed 0900 UTC 18 June 2019
Temperature: 21.0°C (70°F)
Dewpoint: 17.0°C (63°F) [RH = 78%]
Pressure (altimeter): 29.97 inches Hg (1015.0 mb)
Winds: from the NNE (30 degrees) at 2 MPH (2 knots; 1.0 m/s)
Visibility: 6 or more miles (10+ km)
Ceiling: ceiling and visibility are OK
Clouds: unknown
Weather: no significant weather observed at this time

METAR text: NWWW 180830Z AUTO 00000KT CAVOK 21/17 Q1015 NOSIG
Conditions at: NWWW (LA TONTOUTA NLLE, WS) observed 0830 UTC 18 June 2019
Temperature: 21.0°C (70°F)
Dewpoint: 17.0°C (63°F) [RH = 78%]
Pressure (altimeter): 29.97 inches Hg (1015.0 mb)
Winds: calm
Visibility: 6 or more miles (10+ km)
Ceiling: ceiling and visibility are OK
Clouds: unknown
Weather: no significant weather observed at this time

METAR text: NWWW 180800Z AUTO 00000KT CAVOK 21/17 Q1014 NOSIG
Conditions at: NWWW (LA TONTOUTA NLLE, WS) observed 0800 UTC 18 June 2019
Temperature: 21.0°C (70°F)
Dewpoint: 17.0°C (63°F) [RH = 78%]
Pressure (altimeter): 29.94 inches Hg (1014.0 mb)
Winds: calm
Visibility: 6 or more miles (10+ km)
Ceiling: ceiling and visibility are OK
Clouds: unknown
Weather: no significant weather observed at this time

METAR text: NWWW 180730Z AUTO 00000KT 9999 BKN066 21/18 Q1014 NOSIG
Conditions at: NWWW (LA TONTOUTA NLLE, WS) observed 0730 UTC 18 June 2019
Temperature: 21.0°C (70°F)
Dewpoint: 18.0°C (64°F) [RH = 83%]
Pressure (altimeter): 29.94 inches Hg (1014.0 mb)
Winds: calm
Visibility: 6 or more miles (10+ km)
Ceiling: 6600 feet AGL
Clouds: broken clouds at 6600 feet AGL
Weather: no significant weather observed at this time

METAR text: NWWW 180700Z AUTO VRB01KT 9999 BKN066 22/18 Q1013 NOSIG
Conditions at: NWWW (LA TONTOUTA NLLE, WS) observed 0700 UTC 18 June 2019
Temperature: 22.0°C (72°F)
Dewpoint: 18.0°C (64°F) [RH = 78%]
Pressure (altimeter): 29.91 inches Hg (1013.0 mb)
Winds: variable direction winds at 1 MPH (1 knots; 0.5 m/s)
Visibility: 6 or more miles (10+ km)
Ceiling: 6600 feet AGL
Clouds: broken clouds at 6600 feet AGL
Weather: no significant weather observed at this time

METAR text: NWWW 180630Z AUTO 15003KT 9999 FEW054 OVC066 22/17 Q1013 NOSIG
Conditions at: NWWW (LA TONTOUTA NLLE, WS) observed 0630 UTC 18 June 2019
Temperature: 22.0°C (72°F)
Dewpoint: 17.0°C (63°F) [RH = 73%]
Pressure (altimeter): 29.91 inches Hg (1013.0 mb)
Winds: from the SSE (150 degrees) at 3 MPH (3 knots; 1.5 m/s)
Visibility: 6 or more miles (10+ km)
Ceiling: 6600 feet AGL
Clouds: few clouds at 5400 feet AGL
overcast cloud deck at 6600 feet AGL
Weather: no significant weather observed at this time

METAR text: NWWW 180600Z AUTO 17004KT 9999 SCT054 OVC066 23/17 Q1013 NOSIG
Conditions at: NWWW (LA TONTOUTA NLLE, WS) observed 0600 UTC 18 June 2019
Temperature: 23.0°C (73°F)
Dewpoint: 17.0°C (63°F) [RH = 69%]
Pressure (altimeter): 29.91 inches Hg (1013.0 mb)
Winds: from the S (170 degrees) at 5 MPH (4 knots; 2.1 m/s)
Visibility: 6 or more miles (10+ km)
Ceiling: 6600 feet AGL
Clouds: scattered clouds at 5400 feet AGL
overcast cloud deck at 6600 feet AGL
Weather: no significant weather observed at this time

METAR text: NWWW 180530Z AUTO 18007KT 9999 SCT054 OVC066 24/17 Q1013 NOSIG
Conditions at: NWWW (LA TONTOUTA NLLE, WS) observed 0530 UTC 18 June 2019
Temperature: 24.0°C (75°F)
Dewpoint: 17.0°C (63°F) [RH = 65%]
Pressure (altimeter): 29.91 inches Hg (1013.0 mb)
Winds: from the S (180 degrees) at 8 MPH (7 knots; 3.6 m/s)
Visibility: 6 or more miles (10+ km)
Ceiling: 6600 feet AGL
Clouds: scattered clouds at 5400 feet AGL
overcast cloud deck at 6600 feet AGL
Weather: no significant weather observed at this time

METAR text: NWWW 180500Z AUTO 18005KT 140V210 9999 FEW054 OVC064 25/16 Q1013 NOSIG
Conditions at: NWWW (LA TONTOUTA NLLE, WS) observed 0500 UTC 18 June 2019
Temperature: 25.0°C (77°F)
Dewpoint: 16.0°C (61°F) [RH = 57%]
Pressure (altimeter): 29.91 inches Hg (1013.0 mb)
Winds: from the S (180 degrees) at 6 MPH (5 knots; 2.6 m/s)
Visibility: 6 or more miles (10+ km)
Ceiling: 6400 feet AGL
Clouds: few clouds at 5400 feet AGL
overcast cloud deck at 6400 feet AGL
Weather: no significant weather observed at this time

METAR text: NWWW 180430Z AUTO 19005KT 9999 FEW052 BKN064 26/16 Q1012 NOSIG
Conditions at: NWWW (LA TONTOUTA NLLE, WS) observed 0430 UTC 18 June 2019
Temperature: 26.0°C (79°F)
Dewpoint: 16.0°C (61°F) [RH = 54%]
Pressure (altimeter): 29.88 inches Hg (1012.0 mb)
Winds: from the S (190 degrees) at 6 MPH (5 knots; 2.6 m/s)
Visibility: 6 or more miles (10+ km)
Ceiling: 6400 feet AGL
Clouds: few clouds at 5200 feet AGL
broken clouds at 6400 feet AGL
Weather: no significant weather observed at this time

METAR text: NWWW 180400Z AUTO 20006KT 180V240 9999 OVC064 26/16 Q1012 NOSIG
Conditions at: NWWW (LA TONTOUTA NLLE, WS) observed 0400 UTC 18 June 2019
Temperature: 26.0°C (79°F)
Dewpoint: 16.0°C (61°F) [RH = 54%]
Pressure (altimeter): 29.88 inches Hg (1012.0 mb)
Winds: from the SSW (200 degrees) at 7 MPH (6 knots; 3.1 m/s)
Visibility: 6 or more miles (10+ km)
Ceiling: 6400 feet AGL
Clouds: overcast cloud deck at 6400 feet AGL
Weather: no significant weather observed at this time

METAR text: NWWW 180330Z AUTO 22007KT 180V260 9999 OVC064 27/15 Q1012 NOSIG
Conditions at: NWWW (LA TONTOUTA NLLE, WS) observed 0330 UTC 18 June 2019
Temperature: 27.0°C (81°F)
Dewpoint: 15.0°C (59°F) [RH = 48%]
Pressure (altimeter): 29.88 inches Hg (1012.0 mb)
Winds: from the SW (220 degrees) at 8 MPH (7 knots; 3.6 m/s)
Visibility: 6 or more miles (10+ km)
Ceiling: 6400 feet AGL
Clouds: overcast cloud deck at 6400 feet AGL
Weather: no significant weather observed at this time

METAR text: NWWW 180300Z AUTO 22007KT 190V270 9999 OVC062 27/14 Q1012 NOSIG
Conditions at: NWWW (LA TONTOUTA NLLE, WS) observed 0300 UTC 18 June 2019
Temperature: 27.0°C (81°F)
Dewpoint: 14.0°C (57°F) [RH = 45%]
Pressure (altimeter): 29.88 inches Hg (1012.0 mb)
Winds: from the SW (220 degrees) at 8 MPH (7 knots; 3.6 m/s)
Visibility: 6 or more miles (10+ km)
Ceiling: 6200 feet AGL
Clouds: overcast cloud deck at 6200 feet AGL
Weather: no significant weather observed at this time

METAR text: NWWW 180230Z AUTO 23007KT 9999 OVC060 26/15 Q1013 NOSIG
Conditions at: NWWW (LA TONTOUTA NLLE, WS) observed 0230 UTC 18 June 2019
Temperature: 26.0°C (79°F)
Dewpoint: 15.0°C (59°F) [RH = 51%]
Pressure (altimeter): 29.91 inches Hg (1013.0 mb)
Winds: from the SW (230 degrees) at 8 MPH (7 knots; 3.6 m/s)
Visibility: 6 or more miles (10+ km)
Ceiling: 6000 feet AGL
Clouds: overcast cloud deck at 6000 feet AGL
Weather: no significant weather observed at this time

METAR text: NWWW 180200Z AUTO 24007KT 210V290 9999 BKN060 27/14 Q1013 NOSIG
Conditions at: NWWW (LA TONTOUTA NLLE, WS) observed 0200 UTC 18 June 2019
Temperature: 27.0°C (81°F)
Dewpoint: 14.0°C (57°F) [RH = 45%]
Pressure (altimeter): 29.91 inches Hg (1013.0 mb)
Winds: from the WSW (240 degrees) at 8 MPH (7 knots; 3.6 m/s)
Visibility: 6 or more miles (10+ km)
Ceiling: 6000 feet AGL
Clouds: broken clouds at 6000 feet AGL
Weather: no significant weather observed at this time

METAR text: NWWW 180130Z AUTO 21006KT 170V270 9999 BKN060 27/15 Q1013 NOSIG
Conditions at: NWWW (LA TONTOUTA NLLE, WS) observed 0130 UTC 18 June 2019
Temperature: 27.0°C (81°F)
Dewpoint: 15.0°C (59°F) [RH = 48%]
Pressure (altimeter): 29.91 inches Hg (1013.0 mb)
Winds: from the SSW (210 degrees) at 7 MPH (6 knots; 3.1 m/s)
Visibility: 6 or more miles (10+ km)
Ceiling: 6000 feet AGL
Clouds: broken clouds at 6000 feet AGL
Weather: no significant weather observed at this time

METAR text: NWWW 180100Z AUTO 21005KT 170V240 9999 OVC062 26/15 Q1014 NOSIG
Conditions at: NWWW (LA TONTOUTA NLLE, WS) observed 0100 UTC 18 June 2019
Temperature: 26.0°C (79°F)
Dewpoint: 15.0°C (59°F) [RH = 51%]
Pressure (altimeter): 29.94 inches Hg (1014.0 mb)
Winds: from the SSW (210 degrees) at 6 MPH (5 knots; 2.6 m/s)
Visibility: 6 or more miles (10+ km)
Ceiling: 6200 feet AGL
Clouds: overcast cloud deck at 6200 feet AGL
Weather: no significant weather observed at this time

METAR text: NWWW 180030Z AUTO VRB02KT 9999 OVC062 26/15 Q1014 NOSIG
Conditions at: NWWW (LA TONTOUTA NLLE, WS) observed 0030 UTC 18 June 2019
Temperature: 26.0°C (79°F)
Dewpoint: 15.0°C (59°F) [RH = 51%]
Pressure (altimeter): 29.94 inches Hg (1014.0 mb)
Winds: variable direction winds at 2 MPH (2 knots; 1.0 m/s)
Visibility: 6 or more miles (10+ km)
Ceiling: 6200 feet AGL
Clouds: overcast cloud deck at 6200 feet AGL
Weather: no significant weather observed at this time

METAR text: NWWW 180000Z AUTO VRB03KT 9999 FEW062 26/16 Q1015 NOSIG
Conditions at: NWWW (LA TONTOUTA NLLE, WS) observed 0000 UTC 18 June 2019
Temperature: 26.0°C (79°F)
Dewpoint: 16.0°C (61°F) [RH = 54%]
Pressure (altimeter): 29.97 inches Hg (1015.0 mb)
Winds: variable direction winds at 3 MPH (3 knots; 1.5 m/s)
Visibility: 6 or more miles (10+ km)
Ceiling: at least 12,000 feet AGL
Clouds: few clouds at 6200 feet AGL
Weather: no significant weather observed at this time

METAR text: NWWW 172330Z AUTO VRB03KT CAVOK 26/16 Q1015 NOSIG
Conditions at: NWWW (LA TONTOUTA NLLE, WS) observed 2330 UTC 17 June 2019
Temperature: 26.0°C (79°F)
Dewpoint: 16.0°C (61°F) [RH = 54%]
Pressure (altimeter): 29.97 inches Hg (1015.0 mb)
Winds: variable direction winds at 3 MPH (3 knots; 1.5 m/s)
Visibility: 6 or more miles (10+ km)
Ceiling: ceiling and visibility are OK
Clouds: unknown
Weather: no significant weather observed at this time

METAR text: NWWW 172300Z AUTO VRB01KT CAVOK 24/16 Q1015 NOSIG
Conditions at: NWWW (LA TONTOUTA NLLE, WS) observed 2300 UTC 17 June 2019
Temperature: 24.0°C (75°F)
Dewpoint: 16.0°C (61°F) [RH = 61%]
Pressure (altimeter): 29.97 inches Hg (1015.0 mb)
Winds: variable direction winds at 1 MPH (1 knots; 0.5 m/s)
Visibility: 6 or more miles (10+ km)
Ceiling: ceiling and visibility are OK
Clouds: unknown
Weather: no significant weather observed at this time

METAR text: NWWW 172230Z AUTO VRB02KT CAVOK 22/16 Q1015 NOSIG
Conditions at: NWWW (LA TONTOUTA NLLE, WS) observed 2230 UTC 17 June 2019
Temperature: 22.0°C (72°F)
Dewpoint: 16.0°C (61°F) [RH = 69%]
Pressure (altimeter): 29.97 inches Hg (1015.0 mb)
Winds: variable direction winds at 2 MPH (2 knots; 1.0 m/s)
Visibility: 6 or more miles (10+ km)
Ceiling: ceiling and visibility are OK
Clouds: unknown
Weather: no significant weather observed at this time

METAR text: NWWW 172200Z AUTO VRB02KT CAVOK 21/17 Q1016 NOSIG
Conditions at: NWWW (LA TONTOUTA NLLE, WS) observed 2200 UTC 17 June 2019
Temperature: 21.0°C (70°F)
Dewpoint: 17.0°C (63°F) [RH = 78%]
Pressure (altimeter): 30.00 inches Hg (1016.0 mb)
Winds: variable direction winds at 2 MPH (2 knots; 1.0 m/s)
Visibility: 6 or more miles (10+ km)
Ceiling: ceiling and visibility are OK
Clouds: unknown
Weather: no significant weather observed at this time

METAR text: NWWW 172130Z AUTO VRB01KT CAVOK 19/17 Q1016 NOSIG
Conditions at: NWWW (LA TONTOUTA NLLE, WS) observed 2130 UTC 17 June 2019
Temperature: 19.0°C (66°F)
Dewpoint: 17.0°C (63°F) [RH = 88%]
Pressure (altimeter): 30.00 inches Hg (1016.0 mb)
Winds: variable direction winds at 1 MPH (1 knots; 0.5 m/s)
Visibility: 6 or more miles (10+ km)
Ceiling: ceiling and visibility are OK
Clouds: unknown
Weather: no significant weather observed at this time

METAR text: NWWW 172100Z AUTO 00000KT CAVOK 18/17 Q1016 NOSIG
Conditions at: NWWW (LA TONTOUTA NLLE, WS) observed 2100 UTC 17 June 2019
Temperature: 18.0°C (64°F)
Dewpoint: 17.0°C (63°F) [RH = 94%]
Pressure (altimeter): 30.00 inches Hg (1016.0 mb)
Winds: calm
Visibility: 6 or more miles (10+ km)
Ceiling: ceiling and visibility are OK
Clouds: unknown
Weather: no significant weather observed at this time

METAR text: NWWW 172030Z AUTO 00000KT CAVOK 17/16 Q1015 NOSIG
Conditions at: NWWW (LA TONTOUTA NLLE, WS) observed 2030 UTC 17 June 2019
Temperature: 17.0°C (63°F)
Dewpoint: 16.0°C (61°F) [RH = 94%]
Pressure (altimeter): 29.97 inches Hg (1015.0 mb)
Winds: calm
Visibility: 6 or more miles (10+ km)
Ceiling: ceiling and visibility are OK
Clouds: unknown
Weather: no significant weather observed at this time

METAR text: NWWW 172000Z AUTO 13003KT CAVOK 15/15 Q1015 TEMPO 3000 -RA BKN005 FEW016TCU
Conditions at: NWWW (LA TONTOUTA NLLE, WS) observed 2000 UTC 17 June 2019
Temperature: 15.0°C (59°F)
Dewpoint: 15.0°C (59°F) [RH = 100%]
Pressure (altimeter): 29.97 inches Hg (1015.0 mb)
Winds: from the SE (130 degrees) at 3 MPH (3 knots; 1.5 m/s)
Visibility: 6 or more miles (10+ km)
Ceiling: ceiling and visibility are OK
Clouds: unknown
Weather: no significant weather observed at this time

METAR text: NWWW 171930Z AUTO 12003KT 9999 4700 VV/// 15/14 Q1015 TEMPO 3000 -RA BKN005 FEW016TCU
Conditions at: NWWW (LA TONTOUTA NLLE, WS) observed 1930 UTC 17 June 2019
Temperature: 15.0°C (59°F)
Dewpoint: 14.0°C (57°F) [RH = 94%]
Pressure (altimeter): 29.97 inches Hg (1015.0 mb)
Winds: from the ESE (120 degrees) at 3 MPH (3 knots; 1.5 m/s)
Visibility: 6 or more miles (10+ km)
Ceiling: indefinite ceiling with vertical visibility of 0 feet AGL
Clouds: obscured sky
Weather: no significant weather observed at this time

METAR text: NWWW 171900Z AUTO VRB01KT 3000 BR NSC 15/14 Q1015 TEMPO 0800 FG BKN005 FEW016TCU
Conditions at: NWWW (LA TONTOUTA NLLE, WS) observed 1900 UTC 17 June 2019
Temperature: 15.0°C (59°F)
Dewpoint: 14.0°C (57°F) [RH = 94%]
Pressure (altimeter): 29.97 inches Hg (1015.0 mb)
Winds: variable direction winds at 1 MPH (1 knots; 0.5 m/s)
Visibility: 1.86 miles (2.99 km)
Ceiling: at least 12,000 feet AGL
Clouds: sky clear below 12,000 feet AGL
Weather: BR  (mist)

METAR text: NWWW 171830Z AUTO 00000KT 1300 R11/1700U BCFG VV/// 16/16 Q1014 TEMPO 3000 -RA BKN005 FEW016TCU
Conditions at: NWWW (LA TONTOUTA NLLE, WS) observed 1830 UTC 17 June 2019
Temperature: 16.0°C (61°F)
Dewpoint: 16.0°C (61°F) [RH = 100%]
Pressure (altimeter): 29.94 inches Hg (1014.0 mb)
Winds: calm
Visibility: 0.81 miles (1.30 km)
Ceiling: indefinite ceiling with vertical visibility of 0 feet AGL
Clouds: obscured sky
Weather: BCFG  (patches of fog)

METAR text: NWWW 171800Z AUTO 00000KT 1200 0450 R11/1900U BCFG FEW001 16/15 Q1014 NOSIG
Conditions at: NWWW (LA TONTOUTA NLLE, WS) observed 1800 UTC 17 June 2019
Temperature: 16.0°C (61°F)
Dewpoint: 15.0°C (59°F) [RH = 94%]
Pressure (altimeter): 29.94 inches Hg (1014.0 mb)
Winds: calm
Visibility: 0.75 miles (1.21 km)
Ceiling: at least 12,000 feet AGL
Clouds: few clouds at 100 feet AGL
Weather: BCFG  (patches of fog)

METAR text: NWWW 171730Z AUTO 00000KT CAVOK 16/15 Q1014 TEMPO 0800 FG
Conditions at: NWWW (LA TONTOUTA NLLE, WS) observed 1730 UTC 17 June 2019
Temperature: 16.0°C (61°F)
Dewpoint: 15.0°C (59°F) [RH = 94%]
Pressure (altimeter): 29.94 inches Hg (1014.0 mb)
Winds: calm
Visibility: 6 or more miles (10+ km)
Ceiling: ceiling and visibility are OK
Clouds: unknown
Weather: no significant weather observed at this time

METAR text: NWWW 171700Z AUTO 13003KT CAVOK 16/16 Q1015 TEMPO 0800 FG BKN005
Conditions at: NWWW (LA TONTOUTA NLLE, WS) observed 1700 UTC 17 June 2019
Temperature: 16.0°C (61°F)
Dewpoint: 16.0°C (61°F) [RH = 100%]
Pressure (altimeter): 29.97 inches Hg (1015.0 mb)
Winds: from the SE (130 degrees) at 3 MPH (3 knots; 1.5 m/s)
Visibility: 6 or more miles (10+ km)
Ceiling: ceiling and visibility are OK
Clouds: unknown
Weather: no significant weather observed at this time

METAR text: NWWW 171630Z AUTO 14003KT 9999 FEW044 SCT050 16/15 Q1015 TEMPO 0800 FG BKN005
Conditions at: NWWW (LA TONTOUTA NLLE, WS) observed 1630 UTC 17 June 2019
Temperature: 16.0°C (61°F)
Dewpoint: 15.0°C (59°F) [RH = 94%]
Pressure (altimeter): 29.97 inches Hg (1015.0 mb)
Winds: from the SE (140 degrees) at 3 MPH (3 knots; 1.5 m/s)
Visibility: 6 or more miles (10+ km)
Ceiling: at least 12,000 feet AGL
Clouds: few clouds at 4400 feet AGL
scattered clouds at 5000 feet AGL
Weather: no significant weather observed at this time

METAR text: NWWW 171600Z AUTO 00000KT 9999 BKN046 OVC054 16/15 Q1015 TEMPO 3000 -RA BKN005
Conditions at: NWWW (LA TONTOUTA NLLE, WS) observed 1600 UTC 17 June 2019
Temperature: 16.0°C (61°F)
Dewpoint: 15.0°C (59°F) [RH = 94%]
Pressure (altimeter): 29.97 inches Hg (1015.0 mb)
Winds: calm
Visibility: 6 or more miles (10+ km)
Ceiling: 4600 feet AGL
Clouds: broken clouds at 4600 feet AGL
overcast cloud deck at 5400 feet AGL
Weather: no significant weather observed at this time

METAR text: NWWW 171530Z AUTO 00000KT 9999 OVC046 17/16 Q1015 TEMPO 3000 -RA BKN005
Conditions at: NWWW (LA TONTOUTA NLLE, WS) observed 1530 UTC 17 June 2019
Temperature: 17.0°C (63°F)
Dewpoint: 16.0°C (61°F) [RH = 94%]
Pressure (altimeter): 29.97 inches Hg (1015.0 mb)
Winds: calm
Visibility: 6 or more miles (10+ km)
Ceiling: 4600 feet AGL
Clouds: overcast cloud deck at 4600 feet AGL
Weather: no significant weather observed at this time

METAR text: NWWW 171500Z AUTO 00000KT 9999 BKN045 BKN052 17/16 Q1015 TEMPO 3000 -RA BKN005
Conditions at: NWWW (LA TONTOUTA NLLE, WS) observed 1500 UTC 17 June 2019
Temperature: 17.0°C (63°F)
Dewpoint: 16.0°C (61°F) [RH = 94%]
Pressure (altimeter): 29.97 inches Hg (1015.0 mb)
Winds: calm
Visibility: 6 or more miles (10+ km)
Ceiling: 4500 feet AGL
Clouds: broken clouds at 4500 feet AGL
broken clouds at 5200 feet AGL
Weather: no significant weather observed at this time

METAR text: NWWW 171430Z AUTO 00000KT 9999 SCT045 16/15 Q1016 TEMPO 3000 -RA BKN005
Conditions at: NWWW (LA TONTOUTA NLLE, WS) observed 1430 UTC 17 June 2019
Temperature: 16.0°C (61°F)
Dewpoint: 15.0°C (59°F) [RH = 94%]
Pressure (altimeter): 30.00 inches Hg (1016.0 mb)
Winds: calm
Visibility: 6 or more miles (10+ km)
Ceiling: at least 12,000 feet AGL
Clouds: scattered clouds at 4500 feet AGL
Weather: no significant weather observed at this time

METAR text: NWWW 171400Z AUTO 00000KT 9999 BKN043 16/15 Q1016 TEMPO 3000 -RA BKN005
Conditions at: NWWW (LA TONTOUTA NLLE, WS) observed 1400 UTC 17 June 2019
Temperature: 16.0°C (61°F)
Dewpoint: 15.0°C (59°F) [RH = 94%]
Pressure (altimeter): 30.00 inches Hg (1016.0 mb)
Winds: calm
Visibility: 6 or more miles (10+ km)
Ceiling: 4300 feet AGL
Clouds: broken clouds at 4300 feet AGL
Weather: no significant weather observed at this time

METAR text: NWWW 171330Z AUTO 00000KT CAVOK 17/16 Q1016 TEMPO 3000 -RA BKN005
Conditions at: NWWW (LA TONTOUTA NLLE, WS) observed 1330 UTC 17 June 2019
Temperature: 17.0°C (63°F)
Dewpoint: 16.0°C (61°F) [RH = 94%]
Pressure (altimeter): 30.00 inches Hg (1016.0 mb)
Winds: calm
Visibility: 6 or more miles (10+ km)
Ceiling: ceiling and visibility are OK
Clouds: unknown
Weather: no significant weather observed at this time

METAR text: NWWW 171300Z AUTO 00000KT CAVOK 17/16 Q1016 TEMPO 3000 -RA BKN005
Conditions at: NWWW (LA TONTOUTA NLLE, WS) observed 1300 UTC 17 June 2019
Temperature: 17.0°C (63°F)
Dewpoint: 16.0°C (61°F) [RH = 94%]
Pressure (altimeter): 30.00 inches Hg (1016.0 mb)
Winds: calm
Visibility: 6 or more miles (10+ km)
Ceiling: ceiling and visibility are OK
Clouds: unknown
Weather: no significant weather observed at this time

METAR text: NWWW 171230Z AUTO 00000KT 9999 4900 NSC 18/17 Q1016 TEMPO 3000 -RA BKN005
Conditions at: NWWW (LA TONTOUTA NLLE, WS) observed 1230 UTC 17 June 2019
Temperature: 18.0°C (64°F)
Dewpoint: 17.0°C (63°F) [RH = 94%]
Pressure (altimeter): 30.00 inches Hg (1016.0 mb)
Winds: calm
Visibility: 6 or more miles (10+ km)
Ceiling: at least 12,000 feet AGL
Clouds: sky clear below 12,000 feet AGL
Weather: no significant weather observed at this time

METAR text: NWWW 171200Z AUTO 03001KT CAVOK 18/17 Q1016 TEMPO BKN014
Conditions at: NWWW (LA TONTOUTA NLLE, WS) observed 1200 UTC 17 June 2019
Temperature: 18.0°C (64°F)
Dewpoint: 17.0°C (63°F) [RH = 94%]
Pressure (altimeter): 30.00 inches Hg (1016.0 mb)
Winds: from the NNE (30 degrees) at 1 MPH (1 knots; 0.5 m/s)
Visibility: 6 or more miles (10+ km)
Ceiling: ceiling and visibility are OK
Clouds: unknown
Weather: no significant weather observed at this time

METAR text: NWWW 171130Z AUTO VRB02KT CAVOK 19/17 Q1016 TEMPO BKN014
Conditions at: NWWW (LA TONTOUTA NLLE, WS) observed 1130 UTC 17 June 2019
Temperature: 19.0°C (66°F)
Dewpoint: 17.0°C (63°F) [RH = 88%]
Pressure (altimeter): 30.00 inches Hg (1016.0 mb)
Winds: variable direction winds at 2 MPH (2 knots; 1.0 m/s)
Visibility: 6 or more miles (10+ km)
Ceiling: ceiling and visibility are OK
Clouds: unknown
Weather: no significant weather observed at this time

METAR text: NWWW 171100Z AUTO 12003KT CAVOK 19/17 Q1016 TEMPO BKN014
Conditions at: NWWW (LA TONTOUTA NLLE, WS) observed 1100 UTC 17 June 2019
Temperature: 19.0°C (66°F)
Dewpoint: 17.0°C (63°F) [RH = 88%]
Pressure (altimeter): 30.00 inches Hg (1016.0 mb)
Winds: from the ESE (120 degrees) at 3 MPH (3 knots; 1.5 m/s)
Visibility: 6 or more miles (10+ km)
Ceiling: ceiling and visibility are OK
Clouds: unknown
Weather: no significant weather observed at this time

METAR text: NWWW 171030Z AUTO 14002KT 9999 SCT042 20/17 Q1016 TEMPO BKN014
Conditions at: NWWW (LA TONTOUTA NLLE, WS) observed 1030 UTC 17 June 2019
Temperature: 20.0°C (68°F)
Dewpoint: 17.0°C (63°F) [RH = 83%]
Pressure (altimeter): 30.00 inches Hg (1016.0 mb)
Winds: from the SE (140 degrees) at 2 MPH (2 knots; 1.0 m/s)
Visibility: 6 or more miles (10+ km)
Ceiling: at least 12,000 feet AGL
Clouds: scattered clouds at 4200 feet AGL
Weather: no significant weather observed at this time

METAR text: NWWW 171000Z AUTO 00000KT 9999 BKN036 BKN043 OVC050 20/17 Q1016 TEMPO BKN014
Conditions at: NWWW (LA TONTOUTA NLLE, WS) observed 1000 UTC 17 June 2019
Temperature: 20.0°C (68°F)
Dewpoint: 17.0°C (63°F) [RH = 83%]
Pressure (altimeter): 30.00 inches Hg (1016.0 mb)
Winds: calm
Visibility: 6 or more miles (10+ km)
Ceiling: 3600 feet AGL
Clouds: broken clouds at 3600 feet AGL
broken clouds at 4300 feet AGL
overcast cloud deck at 5000 feet AGL
Weather: no significant weather observed at this time

METAR text: NWWW 170930Z AUTO 12006KT 9999 SCT035 OVC042 20/17 Q1016 TEMPO BKN014
Conditions at: NWWW (LA TONTOUTA NLLE, WS) observed 0930 UTC 17 June 2019
Temperature: 20.0°C (68°F)
Dewpoint: 17.0°C (63°F) [RH = 83%]
Pressure (altimeter): 30.00 inches Hg (1016.0 mb)
Winds: from the ESE (120 degrees) at 7 MPH (6 knots; 3.1 m/s)
Visibility: 6 or more miles (10+ km)
Ceiling: 4200 feet AGL
Clouds: scattered clouds at 3500 feet AGL
overcast cloud deck at 4200 feet AGL
Weather: no significant weather observed at this time

METAR text: NWWW 170900Z AUTO 12004KT 9999 BKN039 OVC056 20/17 Q1016 TEMPO BKN014
Conditions at: NWWW (LA TONTOUTA NLLE, WS) observed 0900 UTC 17 June 2019
Temperature: 20.0°C (68°F)
Dewpoint: 17.0°C (63°F) [RH = 83%]
Pressure (altimeter): 30.00 inches Hg (1016.0 mb)
Winds: from the ESE (120 degrees) at 5 MPH (4 knots; 2.1 m/s)
Visibility: 6 or more miles (10+ km)
Ceiling: 3900 feet AGL
Clouds: broken clouds at 3900 feet AGL
overcast cloud deck at 5600 feet AGL
Weather: no significant weather observed at this time

METAR text: NWWW 170830Z AUTO 11003KT 9999 BKN040 OVC060 21/17 Q1016 TEMPO BKN014
Conditions at: NWWW (LA TONTOUTA NLLE, WS) observed 0830 UTC 17 June 2019
Temperature: 21.0°C (70°F)
Dewpoint: 17.0°C (63°F) [RH = 78%]
Pressure (altimeter): 30.00 inches Hg (1016.0 mb)
Winds: from the ESE (110 degrees) at 3 MPH (3 knots; 1.5 m/s)
Visibility: 6 or more miles (10+ km)
Ceiling: 4000 feet AGL
Clouds: broken clouds at 4000 feet AGL
overcast cloud deck at 6000 feet AGL
Weather: no significant weather observed at this time

METAR text: NWWW 170800Z AUTO 11003KT 060V140 9999 OVC036 21/16 Q1015 TEMPO BKN014
Conditions at: NWWW (LA TONTOUTA NLLE, WS) observed 0800 UTC 17 June 2019
Temperature: 21.0°C (70°F)
Dewpoint: 16.0°C (61°F) [RH = 73%]
Pressure (altimeter): 29.97 inches Hg (1015.0 mb)
Winds: from the ESE (110 degrees) at 3 MPH (3 knots; 1.5 m/s)
Visibility: 6 or more miles (10+ km)
Ceiling: 3600 feet AGL
Clouds: overcast cloud deck at 3600 feet AGL
Weather: no significant weather observed at this time

METAR text: NWWW 170730Z AUTO 35003KT 9999 OVC037 22/15 Q1015 TEMPO BKN014
Conditions at: NWWW (LA TONTOUTA NLLE, WS) observed 0730 UTC 17 June 2019
Temperature: 22.0°C (72°F)
Dewpoint: 15.0°C (59°F) [RH = 65%]
Pressure (altimeter): 29.97 inches Hg (1015.0 mb)
Winds: from the N (350 degrees) at 3 MPH (3 knots; 1.5 m/s)
Visibility: 6 or more miles (10+ km)
Ceiling: 3700 feet AGL
Clouds: overcast cloud deck at 3700 feet AGL
Weather: no significant weather observed at this time

METAR text: NWWW 170700Z AUTO 36003KT 9999 OVC041 22/16 Q1015 TEMPO BKN014
Conditions at: NWWW (LA TONTOUTA NLLE, WS) observed 0700 UTC 17 June 2019
Temperature: 22.0°C (72°F)
Dewpoint: 16.0°C (61°F) [RH = 69%]
Pressure (altimeter): 29.97 inches Hg (1015.0 mb)
Winds: from the N (360 degrees) at 3 MPH (3 knots; 1.5 m/s)
Visibility: 6 or more miles (10+ km)
Ceiling: 4100 feet AGL
Clouds: overcast cloud deck at 4100 feet AGL
Weather: no significant weather observed at this time

METAR text: NWWW 170630Z AUTO 36002KT 9999 OVC042 22/15 Q1015 TEMPO BKN014
Conditions at: NWWW (LA TONTOUTA NLLE, WS) observed 0630 UTC 17 June 2019
Temperature: 22.0°C (72°F)
Dewpoint: 15.0°C (59°F) [RH = 65%]
Pressure (altimeter): 29.97 inches Hg (1015.0 mb)
Winds: from the N (360 degrees) at 2 MPH (2 knots; 1.0 m/s)
Visibility: 6 or more miles (10+ km)
Ceiling: 4200 feet AGL
Clouds: overcast cloud deck at 4200 feet AGL
Weather: no significant weather observed at this time

METAR text: NWWW 170600Z AUTO VRB03KT 9999 BKN043 BKN049 OVC056 23/15 Q1014 TEMPO BKN014
Conditions at: NWWW (LA TONTOUTA NLLE, WS) observed 0600 UTC 17 June 2019
Temperature: 23.0°C (73°F)
Dewpoint: 15.0°C (59°F) [RH = 61%]
Pressure (altimeter): 29.94 inches Hg (1014.0 mb)
Winds: variable direction winds at 3 MPH (3 knots; 1.5 m/s)
Visibility: 6 or more miles (10+ km)
Ceiling: 4300 feet AGL
Clouds: broken clouds at 4300 feet AGL
broken clouds at 4900 feet AGL
overcast cloud deck at 5600 feet AGL
Weather: no significant weather observed at this time

METAR text: NWWW 170530Z AUTO 16003KT 120V210 9999 FEW036 BKN044 OVC054 23/15 Q1014 TEMPO BKN014
Conditions at: NWWW (LA TONTOUTA NLLE, WS) observed 0530 UTC 17 June 2019
Temperature: 23.0°C (73°F)
Dewpoint: 15.0°C (59°F) [RH = 61%]
Pressure (altimeter): 29.94 inches Hg (1014.0 mb)
Winds: from the SSE (160 degrees) at 3 MPH (3 knots; 1.5 m/s)
Visibility: 6 or more miles (10+ km)
Ceiling: 4400 feet AGL
Clouds: few clouds at 3600 feet AGL
broken clouds at 4400 feet AGL
overcast cloud deck at 5400 feet AGL
Weather: no significant weather observed at this time

METAR text: NWWW 170500Z AUTO 17004KT 9999 OVC042 23/15 Q1014 TEMPO BKN014
Conditions at: NWWW (LA TONTOUTA NLLE, WS) observed 0500 UTC 17 June 2019
Temperature: 23.0°C (73°F)
Dewpoint: 15.0°C (59°F) [RH = 61%]
Pressure (altimeter): 29.94 inches Hg (1014.0 mb)
Winds: from the S (170 degrees) at 5 MPH (4 knots; 2.1 m/s)
Visibility: 6 or more miles (10+ km)
Ceiling: 4200 feet AGL
Clouds: overcast cloud deck at 4200 feet AGL
Weather: no significant weather observed at this time

METAR text: NWWW 170430Z AUTO 14007KT 110V170 9999 OVC042 23/15 Q1014 TEMPO BKN014
Conditions at: NWWW (LA TONTOUTA NLLE, WS) observed 0430 UTC 17 June 2019
Temperature: 23.0°C (73°F)
Dewpoint: 15.0°C (59°F) [RH = 61%]
Pressure (altimeter): 29.94 inches Hg (1014.0 mb)
Winds: from the SE (140 degrees) at 8 MPH (7 knots; 3.6 m/s)
Visibility: 6 or more miles (10+ km)
Ceiling: 4200 feet AGL
Clouds: overcast cloud deck at 4200 feet AGL
Weather: no significant weather observed at this time

METAR text: NWWW 170400Z AUTO 16006KT 130V190 9999 OVC042 23/15 Q1014 TEMPO BKN014
Conditions at: NWWW (LA TONTOUTA NLLE, WS) observed 0400 UTC 17 June 2019
Temperature: 23.0°C (73°F)
Dewpoint: 15.0°C (59°F) [RH = 61%]
Pressure (altimeter): 29.94 inches Hg (1014.0 mb)
Winds: from the SSE (160 degrees) at 7 MPH (6 knots; 3.1 m/s)
Visibility: 6 or more miles (10+ km)
Ceiling: 4200 feet AGL
Clouds: overcast cloud deck at 4200 feet AGL
Weather: no significant weather observed at this time

METAR text: NWWW 170330Z AUTO 16006KT 120V200 9999 BKN040 OVC047 24/15 Q1014 TEMPO BKN014
Conditions at: NWWW (LA TONTOUTA NLLE, WS) observed 0330 UTC 17 June 2019
Temperature: 24.0°C (75°F)
Dewpoint: 15.0°C (59°F) [RH = 57%]
Pressure (altimeter): 29.94 inches Hg (1014.0 mb)
Winds: from the SSE (160 degrees) at 7 MPH (6 knots; 3.1 m/s)
Visibility: 6 or more miles (10+ km)
Ceiling: 4000 feet AGL
Clouds: broken clouds at 4000 feet AGL
overcast cloud deck at 4700 feet AGL
Weather: no significant weather observed at this time

METAR text: NWWW 170300Z AUTO 18007KT 130V230 9999 BKN041 OVC052 25/15 Q1014 TEMPO BKN014
Conditions at: NWWW (LA TONTOUTA NLLE, WS) observed 0300 UTC 17 June 2019
Temperature: 25.0°C (77°F)
Dewpoint: 15.0°C (59°F) [RH = 54%]
Pressure (altimeter): 29.94 inches Hg (1014.0 mb)
Winds: from the S (180 degrees) at 8 MPH (7 knots; 3.6 m/s)
Visibility: 6 or more miles (10+ km)
Ceiling: 4100 feet AGL
Clouds: broken clouds at 4100 feet AGL
overcast cloud deck at 5200 feet AGL
Weather: no significant weather observed at this time

METAR text: NWWW 170230Z AUTO 20008KT 160V250 9999 OVC054 25/15 Q1014 TEMPO BKN014
Conditions at: NWWW (LA TONTOUTA NLLE, WS) observed 0230 UTC 17 June 2019
Temperature: 25.0°C (77°F)
Dewpoint: 15.0°C (59°F) [RH = 54%]
Pressure (altimeter): 29.94 inches Hg (1014.0 mb)
Winds: from the SSW (200 degrees) at 9 MPH (8 knots; 4.1 m/s)
Visibility: 6 or more miles (10+ km)
Ceiling: 5400 feet AGL
Clouds: overcast cloud deck at 5400 feet AGL
Weather: no significant weather observed at this time

METAR text: NWWW 170200Z AUTO 20007KT 170V240 9999 OVC054 25/14 Q1014 NOSIG
Conditions at: NWWW (LA TONTOUTA NLLE, WS) observed 0200 UTC 17 June 2019
Temperature: 25.0°C (77°F)
Dewpoint: 14.0°C (57°F) [RH = 50%]
Pressure (altimeter): 29.94 inches Hg (1014.0 mb)
Winds: from the SSW (200 degrees) at 8 MPH (7 knots; 3.6 m/s)
Visibility: 6 or more miles (10+ km)
Ceiling: 5400 feet AGL
Clouds: overcast cloud deck at 5400 feet AGL
Weather: no significant weather observed at this time

METAR text: NWWW 170130Z AUTO 19010KT 9999 OVC052 26/15 Q1015 NOSIG
Conditions at: NWWW (LA TONTOUTA NLLE, WS) observed 0130 UTC 17 June 2019
Temperature: 26.0°C (79°F)
Dewpoint: 15.0°C (59°F) [RH = 51%]
Pressure (altimeter): 29.97 inches Hg (1015.0 mb)
Winds: from the S (190 degrees) at 12 MPH (10 knots; 5.1 m/s)
Visibility: 6 or more miles (10+ km)
Ceiling: 5200 feet AGL
Clouds: overcast cloud deck at 5200 feet AGL
Weather: no significant weather observed at this time

METAR text: NWWW 170100Z AUTO 20006KT 160V260 9999 OVC052 25/13 Q1015 NOSIG
Conditions at: NWWW (LA TONTOUTA NLLE, WS) observed 0100 UTC 17 June 2019
Temperature: 25.0°C (77°F)
Dewpoint: 13.0°C (55°F) [RH = 47%]
Pressure (altimeter): 29.97 inches Hg (1015.0 mb)
Winds: from the SSW (200 degrees) at 7 MPH (6 knots; 3.1 m/s)
Visibility: 6 or more miles (10+ km)
Ceiling: 5200 feet AGL
Clouds: overcast cloud deck at 5200 feet AGL
Weather: no significant weather observed at this time

METAR text: NWWW 170030Z AUTO VRB03KT 9999 OVC050 24/13 Q1016 NOSIG
Conditions at: NWWW (LA TONTOUTA NLLE, WS) observed 0030 UTC 17 June 2019
Temperature: 24.0°C (75°F)
Dewpoint: 13.0°C (55°F) [RH = 50%]
Pressure (altimeter): 30.00 inches Hg (1016.0 mb)
Winds: variable direction winds at 3 MPH (3 knots; 1.5 m/s)
Visibility: 6 or more miles (10+ km)
Ceiling: 5000 feet AGL
Clouds: overcast cloud deck at 5000 feet AGL
Weather: no significant weather observed at this time

METAR text: NWWW 170000Z AUTO VRB03KT 9999 SCT048 24/13 Q1017 NOSIG
Conditions at: NWWW (LA TONTOUTA NLLE, WS) observed 0000 UTC 17 June 2019
Temperature: 24.0°C (75°F)
Dewpoint: 13.0°C (55°F) [RH = 50%]
Pressure (altimeter): 30.03 inches Hg (1017.0 mb)
Winds: variable direction winds at 3 MPH (3 knots; 1.5 m/s)
Visibility: 6 or more miles (10+ km)
Ceiling: at least 12,000 feet AGL
Clouds: scattered clouds at 4800 feet AGL
Weather: no significant weather observed at this time

METAR text: NWWW 162330Z AUTO VRB02KT 9999 SCT047 BKN054 24/13 Q1017 NOSIG
Conditions at: NWWW (LA TONTOUTA NLLE, WS) observed 2330 UTC 16 June 2019
Temperature: 24.0°C (75°F)
Dewpoint: 13.0°C (55°F) [RH = 50%]
Pressure (altimeter): 30.03 inches Hg (1017.0 mb)
Winds: variable direction winds at 2 MPH (2 knots; 1.0 m/s)
Visibility: 6 or more miles (10+ km)
Ceiling: 5400 feet AGL
Clouds: scattered clouds at 4700 feet AGL
broken clouds at 5400 feet AGL
Weather: no significant weather observed at this time

METAR text: NWWW 162300Z AUTO VRB03KT 9999 BKN052 23/13 Q1018 NOSIG
Conditions at: NWWW (LA TONTOUTA NLLE, WS) observed 2300 UTC 16 June 2019
Temperature: 23.0°C (73°F)
Dewpoint: 13.0°C (55°F) [RH = 53%]
Pressure (altimeter): 30.06 inches Hg (1018.0 mb)
Winds: variable direction winds at 3 MPH (3 knots; 1.5 m/s)
Visibility: 6 or more miles (10+ km)
Ceiling: 5200 feet AGL
Clouds: broken clouds at 5200 feet AGL
Weather: no significant weather observed at this time

Forecast for: NWWW (LA TONTOUTA NLLE, WS)
Text: TAF NWWW 180500Z 1806/1906 20005KT 9999 FEW035
Forecast period: 0600 UTC 18 June 2019 to 0600 UTC 19 June 2019
Forecast type: FROM: standard forecast or significant change
Winds: from the SSW (200 degrees) at 6 MPH (5 knots; 2.6 m/s)
Visibility: 6 or more miles 10+ km)
Ceiling: at least 12,000 feet AGL
Clouds: few clouds at 3500 feet AGL
Weather: no significant weather forecast for this period
Text: PROB40
Forecast period: 1700 to 2000 UTC 18 June 2019
Forecast type: TEMPORARY: The following changes expected for less than half the time period
Visibility: 0.56 miles (0.90 km)
Ceiling: unknown
Clouds: missing
Weather: BCFG  (patches of fog)